Impacts METAR Board
IDs:

KBOS - Boston/Logan Intl, MA, US

Updated at: 1900 UTC 23 Sep 2018
Potential Impact None Slight Moderate High
Time 23/07Z 23/08Z 23/09Z 23/10Z 23/11Z 23/12Z 23/13Z 23/14Z 23/15Z 23/16Z 23/17Z 23/18Z 23/19Z
Temp55 54 54 53 53 53 56 58 61 63 63 64 64
Dewpt43 44 43 43 43 44 45 46 44 45 44 44 45
Altim30.22 30.23 30.24 30.25 30.25 30.26 30.27 30.27 30.27 30.25 30.25 30.24 30.23
VIS10 10 10 10 10 10 10 10 10 10 10 10 10
CIG250 250 250 250 250 160 -- -- 250 220 220 220 160
CoverBKNBKNBKNBKNBKNBKNSCTSCTBKNBKNBKNBKNOVC
FltCatVFRVFRVFRVFRVFRVFRVFRVFRVFRVFRVFRVFRVFR
WX--------------------------
WDir3203203203203303203203202800320260270
WSpd5 6 6 7 5 6 5 5 4 3 5 6 7
WGst-- -- -- -- -- -- -- -- -- -- -- -- --
Raw hourly METARs
KBOS 230654Z 32005KT 10SM BKN250 13/06 A3022 RMK AO2 SLP232 T01280061
KBOS 230754Z 32006KT 10SM FEW150 BKN250 12/07 A3023 RMK AO2 SLP237 T01220067
KBOS 230854Z 32006KT 10SM FEW150 BKN250 12/06 A3024 RMK AO2 SLP241 T01220061 53008
KBOS 230954Z 32007KT 10SM FEW030 FEW150 BKN250 12/06 A3025 RMK AO2 SLP242 T01170061
KBOS 231054Z 33005KT 10SM FEW030 FEW150 BKN250 12/06 A3025 RMK AO2 SLP243 T01170061
KBOS 231154Z 32006KT 10SM FEW030 BKN160 BKN250 12/07 A3026 RMK AO2 SLP246 T01170067 10139 20117 53005
KBOS 231254Z 32005KT 10SM FEW030 FEW150 SCT250 13/07 A3027 RMK AO2 SLP248 T01330072
KBOS 231354Z COR 32005KT 10SM SCT250 14/08 A3027 RMK AO2 SLP251 T01440078
KBOS 231454Z 28004KT 10SM FEW030 BKN250 16/07 A3027 RMK AO2 SLP248 T01610067 50002
KBOS 231554Z VRB03KT 10SM FEW030 FEW160 BKN220 17/07 A3025 RMK AO2 SLP243 T01720072
KBOS 231654Z 32005KT 10SM FEW030 SCT160 BKN220 17/07 A3025 RMK AO2 SLP241 T01720067
KBOS 231754Z 26006KT 10SM FEW030 SCT160 BKN220 18/07 A3024 RMK AO2 SLP238 T01780067 10178 20117 56010
KBOS 231854Z 27007KT 10SM BKN160 OVC220 18/07 A3023 RMK AO2 SLP236 BINOVC NE T01780072



Page loaded:  19:41 UTC  |   12:41 PM Pacific  |   01:41 PM Mountain  |   02:41 PM Central  |   03:41 PM Eastern

 

ADVISORIES

FORECASTS

FORECASTS

OBSERVATIONS

USER TOOLS

ABOUT US